createdAt,value
2019-02-06T00:01:06.712Z,12.13
2019-02-06T00:03:09.077Z,13.30
2019-02-06T00:05:14.521Z,13.80
2019-02-06T00:07:13.854Z,14.83
2019-02-06T00:09:16.372Z,12.63
2019-02-06T00:11:17.745Z,14.30
2019-02-06T00:13:19.129Z,12.45
2019-02-06T00:15:20.959Z,13.85
2019-02-06T00:17:22.433Z,13.08
2019-02-06T00:19:23.937Z,12.82
2019-02-06T00:21:25.628Z,13.05
2019-02-06T00:23:27.415Z,12.28
2019-02-06T00:25:28.801Z,13.30
2019-02-06T00:27:30.308Z,12.00
2019-02-06T00:29:31.689Z,12.33
2019-02-06T00:31:33.471Z,13.48
2019-02-06T00:33:35.298Z,13.48
2019-02-06T00:35:36.689Z,12.28
2019-02-06T00:37:38.065Z,14.83
2019-02-06T00:39:39.461Z,13.20
2019-02-06T00:41:40.841Z,13.88
2019-02-06T00:43:42.248Z,12.70
2019-02-06T00:45:43.640Z,13.83
2019-02-06T00:47:45.017Z,14.03
2019-02-06T00:49:46.431Z,13.83
2019-02-06T00:51:47.796Z,14.83
2019-02-06T00:53:49.465Z,14.75
2019-02-06T00:55:50.839Z,15.48
2019-02-06T00:57:52.293Z,15.32
2019-02-06T00:59:53.700Z,13.83
2019-02-06T01:01:55.184Z,15.72
2019-02-06T01:03:56.765Z,16.57
2019-02-06T01:05:58.690Z,15.10
2019-02-06T01:08:00.153Z,15.75
2019-02-06T01:10:01.515Z,17.02
2019-02-06T01:12:03.548Z,17.90
2019-02-06T01:14:05.310Z,14.78
2019-02-06T01:16:06.785Z,16.12
2019-02-06T01:18:08.215Z,18.60
2019-02-06T01:20:17.112Z,17.50
2019-02-06T01:22:18.552Z,15.78
2019-02-06T01:24:20.013Z,15.57
2019-02-06T01:26:21.380Z,16.15
2019-02-06T01:28:22.812Z,16.60
2019-02-06T01:30:26.184Z,18.20
2019-02-06T01:32:28.117Z,14.47
2019-02-06T01:34:29.547Z,17.37
2019-02-06T01:36:30.961Z,18.40
2019-02-06T01:38:32.500Z,17.10
2019-02-06T01:40:34.263Z,17.50
2019-02-06T01:42:35.790Z,17.50
2019-02-06T01:44:37.176Z,16.62
2019-02-06T01:46:38.552Z,15.18
2019-02-06T01:48:40.594Z,17.70
2019-02-06T01:50:41.978Z,16.07
2019-02-06T01:52:43.359Z,17.10
2019-02-06T01:54:44.836Z,17.45
2019-02-06T01:56:46.409Z,17.23
2019-02-06T01:58:47.797Z,18.65
2019-02-06T02:00:49.412Z,18.30
2019-02-06T02:02:50.998Z,16.93
2019-02-06T02:04:52.379Z,15.53
2019-02-06T02:06:53.776Z,17.10
2019-02-06T02:08:57.110Z,17.92
2019-02-06T02:10:58.599Z,15.95
2019-02-06T02:13:00.231Z,16.30
2019-02-06T02:15:01.717Z,16.95
2019-02-06T02:17:03.095Z,19.05
2019-02-06T02:19:04.641Z,16.23
2019-02-06T02:21:06.032Z,17.62
2019-02-06T02:23:07.520Z,17.35
2019-02-06T02:25:09.354Z,17.48
2019-02-06T02:27:10.792Z,18.92
2019-02-06T02:29:12.181Z,17.27
2019-02-06T02:31:14.058Z,18.50
2019-02-06T02:33:15.650Z,19.40
2019-02-06T02:35:17.120Z,20.35
2019-02-06T02:37:18.620Z,18.32
2019-02-06T02:39:19.989Z,20.10
2019-02-06T02:41:21.363Z,21.42
2019-02-06T02:43:22.766Z,20.80
2019-02-06T02:45:24.143Z,21.85
2019-02-06T02:47:25.758Z,19.90
2019-02-06T02:49:27.324Z,21.42
2019-02-06T02:51:28.831Z,20.23
2019-02-06T02:53:30.206Z,21.23
2019-02-06T02:55:31.658Z,21.02
2019-02-06T02:57:33.032Z,22.80
2019-02-06T02:59:34.415Z,23.50
2019-02-06T03:01:40.613Z,21.85
2019-02-06T03:03:43.906Z,21.20
2019-02-06T03:05:45.494Z,23.15
2019-02-06T03:07:47.030Z,22.82
2019-02-06T03:09:48.405Z,22.48
2019-02-06T03:11:49.799Z,23.18
2019-02-06T03:13:51.250Z,26.20
2019-02-06T03:15:52.621Z,23.57
2019-02-06T03:17:54.014Z,23.60
2019-02-06T03:19:55.453Z,25.57
2019-02-06T03:21:56.913Z,25.72
2019-02-06T03:23:58.264Z,24.60
2019-02-06T03:25:59.819Z,28.45
2019-02-06T03:28:01.205Z,23.45
2019-02-06T03:30:08.348Z,24.43
2019-02-06T03:32:10.395Z,25.60
2019-02-06T03:34:11.832Z,24.20
2019-02-06T03:36:13.207Z,27.87
2019-02-06T03:38:14.634Z,26.20
2019-02-06T03:40:17.392Z,27.20
2019-02-06T03:42:18.812Z,25.97
2019-02-06T03:44:20.190Z,27.25
2019-02-06T03:46:21.572Z,27.02
2019-02-06T03:48:23.245Z,26.33
2019-02-06T03:50:24.696Z,28.20
2019-02-06T03:52:26.067Z,26.02
2019-02-06T03:54:27.529Z,27.55
2019-02-06T03:56:28.892Z,26.27
2019-02-06T03:58:30.225Z,26.80
2019-02-06T04:00:31.644Z,24.70
2019-02-06T04:02:33.026Z,24.95
2019-02-06T04:04:34.462Z,25.65
2019-02-06T04:06:35.830Z,26.30
2019-02-06T04:08:37.317Z,27.42
2019-02-06T04:10:38.722Z,25.52
2019-02-06T04:12:40.200Z,28.47
2019-02-06T04:14:41.550Z,28.07
2019-02-06T04:16:42.976Z,26.97
2019-02-06T04:18:44.344Z,24.55
2019-02-06T04:20:45.706Z,26.52
2019-02-06T04:22:47.613Z,28.17
2019-02-06T04:24:51.588Z,26.02
2019-02-06T04:26:52.287Z,27.60
2019-02-06T04:28:53.936Z,27.70
2019-02-06T04:30:55.354Z,27.40
2019-02-06T04:32:56.820Z,28.65
2019-02-06T04:34:58.408Z,27.05
2019-02-06T04:37:06.811Z,26.70
2019-02-06T04:39:06.127Z,28.10
2019-02-06T04:41:07.526Z,28.60
2019-02-06T04:43:08.898Z,27.20
2019-02-06T04:45:14.171Z,26.12
2019-02-06T04:47:15.872Z,26.70
2019-02-06T04:49:17.645Z,26.80
2019-02-06T04:51:19.003Z,27.17
2019-02-06T04:53:20.413Z,28.32
2019-02-06T04:55:21.932Z,27.93
2019-02-06T04:57:23.631Z,28.65
2019-02-06T04:59:25.023Z,26.12
2019-02-06T05:01:26.388Z,26.33
2019-02-06T05:03:27.760Z,27.15
2019-02-06T05:05:29.170Z,26.57
2019-02-06T05:07:30.584Z,27.10
2019-02-06T05:09:31.944Z,29.70
2019-02-06T05:11:33.518Z,30.32
2019-02-06T05:13:34.933Z,35.00
2019-02-06T05:15:36.321Z,38.60
2019-02-06T05:17:37.786Z,40.60
2019-02-06T05:19:42.055Z,37.73
2019-02-06T05:21:43.483Z,37.55
2019-02-06T05:23:44.939Z,36.53
2019-02-06T05:25:46.323Z,34.05
2019-02-06T05:27:47.745Z,33.48
2019-02-06T05:29:49.168Z,32.17
2019-02-06T05:31:50.849Z,31.05
2019-02-06T05:33:52.216Z,31.02
2019-02-06T05:35:53.686Z,32.67
2019-02-06T05:37:55.150Z,30.10
2019-02-06T05:39:57.332Z,33.02
2019-02-06T05:41:58.847Z,29.70
2019-02-06T05:44:00.228Z,30.97
2019-02-06T05:46:01.707Z,26.97
2019-02-06T05:48:03.715Z,30.57
2019-02-06T05:50:10.267Z,30.17
2019-02-06T05:52:11.702Z,30.92
2019-02-06T05:54:13.082Z,29.77
2019-02-06T05:56:14.443Z,31.35
2019-02-06T05:58:15.878Z,32.00
2019-02-06T06:00:27.527Z,30.90
2019-02-06T06:02:28.888Z,30.90
2019-02-06T06:04:30.290Z,28.05
2019-02-06T06:06:32.057Z,30.32
2019-02-06T06:08:33.485Z,30.50
2019-02-06T06:10:34.898Z,28.60
2019-02-06T06:12:36.280Z,30.23
2019-02-06T06:14:37.874Z,30.90
2019-02-06T06:16:39.265Z,26.57
2019-02-06T06:18:40.648Z,29.12
2019-02-06T06:20:42.023Z,32.25
2019-02-06T06:22:44.028Z,31.73
2019-02-06T06:24:45.494Z,31.45
2019-02-06T06:26:46.964Z,31.50
2019-02-06T06:28:48.354Z,30.40
2019-02-06T06:30:50.152Z,30.08
2019-02-06T06:32:51.604Z,32.33
2019-02-06T06:34:52.981Z,32.50
2019-02-06T06:36:56.816Z,33.20
2019-02-06T06:38:57.722Z,34.03
2019-02-06T06:40:59.109Z,32.78
2019-02-06T06:43:00.486Z,30.65
2019-02-06T06:45:03.164Z,32.38
2019-02-06T06:47:04.569Z,35.85
2019-02-06T06:49:05.937Z,34.58
2019-02-06T06:51:07.343Z,31.50
2019-02-06T06:53:08.698Z,33.85
2019-02-06T06:55:13.320Z,33.28
2019-02-06T06:57:15.177Z,32.70
2019-02-06T06:59:16.591Z,34.23
2019-02-06T07:01:18.094Z,32.00
2019-02-06T07:03:19.502Z,31.37
2019-02-06T07:05:21.289Z,32.13
2019-02-06T07:07:22.789Z,33.35
2019-02-06T07:09:24.149Z,32.67
2019-02-06T07:11:25.521Z,34.65
2019-02-06T07:13:26.958Z,31.70
2019-02-06T07:15:31.569Z,34.40
2019-02-06T07:17:32.937Z,33.55
2019-02-06T07:19:34.351Z,34.60
2019-02-06T07:21:35.795Z,35.63
2019-02-06T07:23:37.179Z,35.63
2019-02-06T07:25:38.584Z,32.23
2019-02-06T07:27:39.937Z,34.00
2019-02-06T07:29:41.375Z,34.23
2019-02-06T07:31:43.160Z,33.98
2019-02-06T07:33:44.508Z,35.15
2019-02-06T07:35:45.945Z,33.48
2019-02-06T07:37:47.315Z,42.62
2019-02-06T07:39:49.168Z,37.30
2019-02-06T07:41:50.550Z,40.43
2019-02-06T07:43:52.146Z,38.38
2019-02-06T07:45:53.522Z,35.48
2019-02-06T07:47:55.394Z,40.05
2019-02-06T07:49:56.875Z,40.88
2019-02-06T07:51:58.243Z,41.08
2019-02-06T07:53:59.616Z,39.35
2019-02-06T07:56:01.076Z,37.48
2019-02-06T07:58:02.580Z,33.98
2019-02-06T08:00:06.395Z,33.98
2019-02-06T08:02:07.978Z,34.35
2019-02-06T08:04:09.353Z,34.80
2019-02-06T08:06:10.728Z,35.38
2019-02-06T08:08:12.125Z,32.60
2019-02-06T08:10:27.912Z,35.52
2019-02-06T08:12:29.281Z,35.08
2019-02-06T08:14:30.658Z,33.35
2019-02-06T08:16:32.026Z,32.75
2019-02-06T08:18:33.394Z,33.48
2019-02-06T08:20:34.900Z,30.75
2019-02-06T08:22:36.289Z,32.88
2019-02-06T08:24:37.634Z,34.92
2019-02-06T08:26:39.017Z,32.45
2019-02-06T08:28:40.417Z,36.48
2019-02-06T08:30:41.794Z,31.57
2019-02-06T08:32:43.174Z,32.70
2019-02-06T08:34:44.546Z,32.25
2019-02-06T08:36:45.917Z,30.15
2019-02-06T08:38:49.258Z,28.90
2019-02-06T08:40:50.579Z,28.05
2019-02-06T08:42:52.121Z,29.40
2019-02-06T08:44:53.665Z,26.82
2019-02-06T08:46:55.041Z,29.72
2019-02-06T08:48:56.406Z,29.00
2019-02-06T08:50:57.792Z,27.15
2019-02-06T08:52:59.176Z,30.12
2019-02-06T08:55:00.557Z,28.38
2019-02-06T08:57:01.915Z,28.32
2019-02-06T08:59:03.466Z,26.37
2019-02-06T09:01:05.244Z,28.60
2019-02-06T09:03:08.514Z,26.37
2019-02-06T09:05:10.169Z,26.30
2019-02-06T09:07:11.673Z,27.10
2019-02-06T09:09:13.123Z,27.62
2019-02-06T09:11:14.572Z,27.27
2019-02-06T09:13:15.965Z,23.85
2019-02-06T09:15:17.449Z,24.98
2019-02-06T09:17:18.847Z,25.40
2019-02-06T09:19:20.205Z,26.30
2019-02-06T09:21:21.582Z,26.80
2019-02-06T09:23:23.359Z,26.95
2019-02-06T09:25:27.367Z,27.67
2019-02-06T09:27:28.766Z,25.25
2019-02-06T09:29:30.149Z,25.17
2019-02-06T09:31:31.739Z,27.65
2019-02-06T09:33:33.128Z,25.70
2019-02-06T09:35:34.514Z,26.40
2019-02-06T09:37:35.904Z,22.85
2019-02-06T09:39:37.399Z,24.70
2019-02-06T09:41:38.827Z,21.07
2019-02-06T09:43:40.330Z,22.47
2019-02-06T09:45:41.728Z,21.87
2019-02-06T09:47:43.301Z,22.35
2019-02-06T09:49:44.694Z,22.60
2019-02-06T09:51:46.083Z,22.50
2019-02-06T09:53:47.437Z,22.30
2019-02-06T09:55:48.791Z,22.35
2019-02-06T09:57:50.281Z,24.57
2019-02-06T09:59:51.633Z,22.40
2019-02-06T10:01:52.985Z,21.47
2019-02-06T10:03:54.369Z,19.83
2019-02-06T10:05:55.744Z,20.47
2019-02-06T10:07:57.233Z,20.77
2019-02-06T10:09:58.657Z,19.10
2019-02-06T10:12:00.074Z,20.80
2019-02-06T10:14:01.441Z,23.27
2019-02-06T10:16:02.890Z,20.87
2019-02-06T10:18:05.204Z,19.85
2019-02-06T10:20:16.631Z,20.77
2019-02-06T10:22:18.037Z,20.87
2019-02-06T10:24:19.413Z,18.83
2019-02-06T10:26:20.809Z,18.77
2019-02-06T10:28:24.200Z,20.70
2019-02-06T10:30:29.790Z,18.10
2019-02-06T10:32:31.431Z,15.43
2019-02-06T10:34:32.781Z,15.30
2019-02-06T10:36:34.251Z,14.33
2019-02-06T10:38:35.592Z,21.13
2019-02-06T10:40:37.535Z,16.00
2019-02-06T10:42:39.131Z,13.80
2019-02-06T10:44:40.470Z,15.13
2019-02-06T10:46:41.852Z,14.60
2019-02-06T10:48:43.852Z,14.80
2019-02-06T10:50:47.531Z,14.50
2019-02-06T10:52:49.014Z,13.27
2019-02-06T10:54:50.391Z,15.03
2019-02-06T10:56:51.720Z,14.33
2019-02-06T10:58:53.064Z,14.37
2019-02-06T11:00:55.038Z,14.10
2019-02-06T11:02:56.475Z,13.50
2019-02-06T11:04:57.845Z,12.50
2019-02-06T11:06:59.186Z,13.90
2019-02-06T11:09:00.542Z,13.20
2019-02-06T11:11:01.907Z,12.40
2019-02-06T11:13:04.756Z,13.23
2019-02-06T11:15:09.896Z,12.67
2019-02-06T11:17:11.273Z,12.03
2019-02-06T11:19:12.609Z,12.80
2019-02-06T11:21:13.952Z,11.60
2019-02-06T11:23:15.371Z,12.10
2019-02-06T11:25:17.297Z,12.70
2019-02-06T11:27:18.644Z,11.93
2019-02-06T11:29:20.014Z,11.67
2019-02-06T11:31:21.359Z,12.17
2019-02-06T11:33:22.735Z,11.00
2019-02-06T11:35:24.104Z,9.80
2019-02-06T11:37:25.557Z,9.70
2019-02-06T11:39:26.902Z,11.30
2019-02-06T11:41:28.271Z,11.10
2019-02-06T11:43:32.006Z,13.07
2019-02-06T11:45:34.603Z,9.93
2019-02-06T11:47:36.094Z,10.30
2019-02-06T11:49:39.673Z,10.87
2019-02-06T11:51:41.014Z,11.07
2019-02-06T11:53:42.387Z,11.03
2019-02-06T11:55:43.826Z,12.47
2019-02-06T11:57:45.398Z,11.70
2019-02-06T11:59:46.729Z,11.20
2019-02-06T12:01:49.263Z,11.03
2019-02-06T12:03:50.643Z,12.03
2019-02-06T12:05:51.981Z,19.40
2019-02-06T12:07:53.342Z,11.93
2019-02-06T12:09:54.694Z,11.60
2019-02-06T12:11:56.031Z,11.80
2019-02-06T12:13:57.463Z,13.07
2019-02-06T12:15:58.811Z,11.20
2019-02-06T12:18:00.202Z,14.50
2019-02-06T12:20:05.236Z,11.97
2019-02-06T12:22:06.622Z,10.53
2019-02-06T12:24:08.459Z,13.20
2019-02-06T12:26:09.801Z,11.50
2019-02-06T12:28:11.241Z,13.07
2019-02-06T12:30:30.360Z,11.83
2019-02-06T12:32:31.762Z,11.90
2019-02-06T12:34:33.556Z,12.30
2019-02-06T12:36:34.943Z,12.60
2019-02-06T12:38:36.384Z,12.80
2019-02-06T12:40:37.915Z,13.77
2019-02-06T12:42:39.893Z,10.93
2019-02-06T12:44:41.369Z,15.80
2019-02-06T12:46:42.708Z,12.50
2019-02-06T12:48:44.039Z,13.23
2019-02-06T12:50:45.417Z,11.53
2019-02-06T12:52:47.255Z,13.17
2019-02-06T12:54:48.644Z,13.10
2019-02-06T12:56:49.988Z,13.33
2019-02-06T12:58:51.313Z,12.70
2019-02-06T13:00:52.698Z,14.77
2019-02-06T13:02:56.460Z,13.10
2019-02-06T13:04:57.357Z,13.80
2019-02-06T13:07:00.203Z,12.40
2019-02-06T13:09:03.940Z,11.90
2019-02-06T13:11:05.491Z,14.03
2019-02-06T13:13:06.898Z,13.10
2019-02-06T13:15:12.900Z,13.23
2019-02-06T13:17:14.313Z,13.13
2019-02-06T13:19:15.740Z,13.20
2019-02-06T13:21:17.111Z,14.03
2019-02-06T13:23:18.476Z,12.67
2019-02-06T13:25:19.857Z,15.27
2019-02-06T13:27:21.253Z,14.27
2019-02-06T13:29:22.610Z,13.40
2019-02-06T13:31:23.993Z,14.37
2019-02-06T13:33:25.341Z,14.13
2019-02-06T13:35:26.789Z,14.53
2019-02-06T13:37:28.186Z,12.60
2019-02-06T13:39:29.556Z,16.43
2019-02-06T13:41:30.897Z,13.37
2019-02-06T13:43:32.302Z,15.30
2019-02-06T13:45:38.857Z,13.90
2019-02-06T13:47:40.197Z,13.90
2019-02-06T13:49:41.626Z,13.87
2019-02-06T13:51:42.997Z,13.23
2019-02-06T13:53:44.345Z,12.93
2019-02-06T13:55:45.755Z,13.40
2019-02-06T13:57:47.228Z,16.60
2019-02-06T13:59:48.586Z,14.50
2019-02-06T14:01:50.001Z,19.73
2019-02-06T14:03:51.353Z,13.83
2019-02-06T14:05:52.811Z,15.97
2019-02-06T14:07:57.940Z,17.30
2019-02-06T14:09:59.292Z,14.83
2019-02-06T14:12:00.781Z,14.97
2019-02-06T14:14:02.385Z,13.00
2019-02-06T14:16:05.560Z,13.87
2019-02-06T14:18:07.240Z,12.70
2019-02-06T14:20:14.014Z,14.03
2019-02-06T14:22:15.427Z,13.07
2019-02-06T14:24:22.484Z,15.53
2019-02-06T14:26:36.065Z,13.20
2019-02-06T14:29:16.301Z,12.93
2019-02-06T14:31:51.058Z,12.47
2019-02-06T14:34:06.612Z,11.57
2019-02-06T14:36:51.705Z,12.73
2019-02-06T14:39:20.428Z,13.53
2019-02-06T14:42:02.957Z,13.43
2019-02-06T14:44:40.175Z,12.80
2019-02-06T14:46:59.067Z,12.23
2019-02-06T14:49:09.048Z,12.53
2019-02-06T14:51:22.233Z,12.53
2019-02-06T14:53:53.709Z,12.37
2019-02-06T14:56:21.465Z,11.47
2019-02-06T14:58:46.069Z,12.60
2019-02-06T15:00:59.846Z,11.93
2019-02-06T15:03:39.489Z,11.63
2019-02-06T15:06:10.777Z,11.13
2019-02-06T15:08:39.069Z,11.93
2019-02-06T15:11:01.655Z,13.53
2019-02-06T15:13:31.144Z,12.63
2019-02-06T15:16:16.371Z,13.13
2019-02-06T15:18:32.368Z,12.30
2019-02-06T15:21:01.589Z,13.20
2019-02-06T15:23:36.486Z,13.10
2019-02-06T15:25:58.577Z,13.90
2019-02-06T15:28:37.716Z,13.70
2019-02-06T15:31:08.735Z,12.47
2019-02-06T15:33:53.412Z,10.90
2019-02-06T15:36:15.095Z,12.60
2019-02-06T15:38:43.032Z,12.50
2019-02-06T15:40:56.597Z,13.27
2019-02-06T15:43:15.669Z,11.67
2019-02-06T15:45:48.901Z,12.43
2019-02-06T15:48:14.182Z,12.70
2019-02-06T15:50:39.440Z,12.20
2019-02-06T15:52:58.064Z,14.00
2019-02-06T15:55:23.050Z,13.20
2019-02-06T15:57:54.308Z,11.80
2019-02-06T16:00:01.402Z,12.93
2019-02-06T16:02:23.264Z,12.73
2019-02-06T16:05:10.442Z,12.80
2019-02-06T16:07:50.043Z,14.47
2019-02-06T16:10:28.624Z,12.53
2019-02-06T16:12:59.540Z,13.45
2019-02-06T16:15:15.302Z,12.93
2019-02-06T16:18:07.988Z,13.93
2019-02-06T16:20:24.118Z,13.60
2019-02-06T16:23:01.619Z,14.87
2019-02-06T16:25:37.810Z,12.65
2019-02-06T16:27:47.746Z,13.95
2019-02-06T16:30:06.937Z,13.43
2019-02-06T16:32:40.894Z,12.63
2019-02-06T16:35:19.494Z,11.90
2019-02-06T16:37:38.411Z,12.60
2019-02-06T16:40:00.544Z,13.07
2019-02-06T16:42:40.090Z,12.60
2019-02-06T16:45:01.578Z,13.75
2019-02-06T16:47:29.843Z,13.30
2019-02-06T16:49:48.583Z,11.78
2019-02-06T16:52:01.788Z,12.63
2019-02-06T16:54:26.656Z,12.23
2019-02-06T16:57:08.606Z,12.63
2019-02-06T16:59:30.322Z,12.43
2019-02-06T17:02:06.070Z,12.45
2019-02-06T17:04:37.394Z,13.25
2019-02-06T17:06:53.664Z,12.50
2019-02-06T17:09:17.175Z,10.80
2019-02-06T17:11:35.883Z,13.58
2019-02-06T17:13:54.703Z,13.55
2019-02-06T17:16:10.805Z,13.10
2019-02-06T17:18:42.225Z,11.17
2019-02-06T17:21:10.033Z,12.50
2019-02-06T17:23:17.089Z,13.25
2019-02-06T17:25:36.179Z,11.83
2019-02-06T17:28:08.877Z,13.00
2019-02-06T17:30:42.989Z,13.15
2019-02-06T17:33:05.158Z,12.40
2019-02-06T17:35:27.576Z,11.70
2019-02-06T17:37:49.724Z,11.70
2019-02-06T17:40:12.197Z,10.68
2019-02-06T17:42:28.018Z,11.03
2019-02-06T17:44:57.681Z,15.40
2019-02-06T17:47:10.374Z,13.03
2019-02-06T17:49:22.789Z,11.53
2019-02-06T17:51:49.455Z,12.60
2019-02-06T17:54:02.520Z,11.55
2019-02-06T17:56:04.282Z,9.85
2019-02-06T17:58:05.896Z,11.78
2019-02-06T18:00:15.803Z,13.13
2019-02-06T18:02:17.177Z,11.07
2019-02-06T18:04:18.582Z,11.90
2019-02-06T18:06:19.961Z,11.18
2019-02-06T18:08:21.394Z,10.48
2019-02-06T18:10:22.871Z,10.75
2019-02-06T18:12:27.406Z,11.00
2019-02-06T18:14:27.562Z,10.82
2019-02-06T18:16:29.079Z,11.97
2019-02-06T18:18:30.458Z,10.70
2019-02-06T18:20:32.038Z,11.57
2019-02-06T18:22:33.849Z,10.30
2019-02-06T18:24:35.407Z,11.28
2019-02-06T18:26:41.391Z,11.28
2019-02-06T18:28:42.802Z,11.18
2019-02-06T18:30:44.656Z,12.03
2019-02-06T18:32:46.008Z,11.60
2019-02-06T18:34:47.441Z,13.03
2019-02-06T18:36:48.971Z,11.80
2019-02-06T18:38:51.220Z,11.43
2019-02-06T18:40:52.638Z,10.40
2019-02-06T18:42:54.653Z,10.20
2019-02-06T18:44:56.008Z,12.43
2019-02-06T18:46:59.538Z,12.30
2019-02-06T18:49:00.888Z,12.13
2019-02-06T18:51:03.157Z,13.08
2019-02-06T18:53:06.582Z,12.70
2019-02-06T18:55:08.544Z,11.60
2019-02-06T18:57:09.901Z,12.47
2019-02-06T18:59:11.532Z,11.40
2019-02-06T19:01:13.001Z,12.50
2019-02-06T19:03:26.816Z,11.95
2019-02-06T19:05:33.409Z,13.18
2019-02-06T19:07:34.872Z,12.15
2019-02-06T19:09:36.430Z,29.00
2019-02-06T19:11:38.068Z,13.53
2019-02-06T19:13:39.532Z,18.17
2019-02-06T19:15:41.146Z,14.75
2019-02-06T19:17:42.604Z,14.05
2019-02-06T19:19:45.051Z,11.80
2019-02-06T19:21:46.602Z,11.75
2019-02-06T19:23:47.961Z,23.92
2019-02-06T19:25:49.317Z,12.85
2019-02-06T19:27:51.133Z,12.88
2019-02-06T19:29:52.606Z,12.28
2019-02-06T19:31:54.028Z,12.10
2019-02-06T19:33:55.400Z,11.25
2019-02-06T19:35:57.082Z,10.58
2019-02-06T19:37:58.671Z,11.15
2019-02-06T19:40:00.887Z,11.45
2019-02-06T19:42:02.321Z,11.80
2019-02-06T19:44:03.993Z,12.23
2019-02-06T19:46:05.545Z,15.00
2019-02-06T19:48:15.628Z,12.20
2019-02-06T19:50:26.613Z,13.35
2019-02-06T19:52:28.038Z,11.90
2019-02-06T19:54:29.899Z,11.80
2019-02-06T19:56:31.464Z,12.37
2019-02-06T19:58:32.845Z,11.65
2019-02-06T20:00:35.087Z,11.95
2019-02-06T20:02:36.853Z,11.12
2019-02-06T20:04:38.226Z,12.35
2019-02-06T20:06:39.740Z,11.05
2019-02-06T20:08:41.114Z,9.75
2019-02-06T20:10:49.246Z,12.45
2019-02-06T20:12:51.069Z,11.03
2019-02-06T20:14:55.363Z,10.50
2019-02-06T20:16:55.855Z,11.20
2019-02-06T20:18:59.336Z,11.03
2019-02-06T20:21:08.682Z,12.28
2019-02-06T20:23:10.058Z,11.28
2019-02-06T20:25:11.914Z,11.70
2019-02-06T20:27:13.354Z,11.90
2019-02-06T20:29:14.706Z,11.90
2019-02-06T20:31:17.207Z,12.30
2019-02-06T20:33:18.625Z,10.95
2019-02-06T20:35:20.083Z,10.23
2019-02-06T20:37:21.529Z,11.03
2019-02-06T20:39:23.007Z,11.50
2019-02-06T20:41:24.593Z,10.63
2019-02-06T20:43:25.949Z,11.90
2019-02-06T20:45:27.483Z,11.22
2019-02-06T20:47:28.842Z,11.80
2019-02-06T20:49:30.205Z,10.80
2019-02-06T20:51:31.626Z,12.70
2019-02-06T20:53:32.984Z,12.07
2019-02-06T20:55:34.436Z,11.38
2019-02-06T20:57:35.846Z,10.95
2019-02-06T20:59:37.207Z,11.95
2019-02-06T21:01:38.748Z,10.82
2019-02-06T21:03:40.116Z,11.57
2019-02-06T21:05:41.469Z,10.55
2019-02-06T21:07:42.882Z,11.03
2019-02-06T21:09:44.235Z,10.45
2019-02-06T21:11:45.592Z,11.18
2019-02-06T21:13:47.402Z,10.95
2019-02-06T21:15:48.813Z,11.40
2019-02-06T21:17:50.165Z,10.50
2019-02-06T21:19:51.581Z,12.25
2019-02-06T21:21:52.959Z,11.73
2019-02-06T21:23:54.345Z,10.65
2019-02-06T21:25:55.773Z,10.15
2019-02-06T21:27:57.126Z,11.68
2019-02-06T21:29:58.513Z,12.18
2019-02-06T21:31:59.946Z,10.85
2019-02-06T21:34:05.896Z,12.30
2019-02-06T21:36:06.662Z,10.20
2019-02-06T21:38:08.095Z,11.30
2019-02-06T21:40:23.839Z,11.48
2019-02-06T21:42:25.222Z,12.00
2019-02-06T21:44:26.968Z,10.35
2019-02-06T21:46:28.385Z,12.60
2019-02-06T21:48:29.776Z,13.62
2019-02-06T21:50:31.237Z,13.38
2019-02-06T21:52:32.706Z,11.53
2019-02-06T21:54:34.222Z,12.60
2019-02-06T21:56:36.365Z,12.65
2019-02-06T21:58:37.737Z,13.18
2019-02-06T22:00:41.493Z,11.50
2019-02-06T22:02:43.092Z,13.08
2019-02-06T22:04:44.466Z,14.20
2019-02-06T22:06:45.815Z,11.10
2019-02-06T22:08:47.232Z,12.13
2019-02-06T22:10:48.995Z,10.28
2019-02-06T22:12:50.555Z,13.00
2019-02-06T22:14:52.488Z,9.98
2019-02-06T22:16:53.888Z,10.03
2019-02-06T22:18:55.353Z,11.03
2019-02-06T22:20:56.766Z,10.23
2019-02-06T22:22:58.315Z,11.78
2019-02-06T22:24:59.777Z,11.57
2019-02-06T22:27:04.219Z,10.30
2019-02-06T22:29:05.584Z,11.63
2019-02-06T22:31:06.959Z,10.72
2019-02-06T22:33:08.536Z,10.05
2019-02-06T22:35:12.087Z,10.70
2019-02-06T22:37:13.571Z,10.78
2019-02-06T22:39:15.002Z,10.70
2019-02-06T22:41:16.418Z,9.40
2019-02-06T22:43:17.771Z,11.20
2019-02-06T22:45:25.822Z,11.65
2019-02-06T22:47:27.188Z,10.80
2019-02-06T22:49:28.564Z,11.40
2019-02-06T22:51:29.999Z,10.35
2019-02-06T22:53:31.455Z,11.25
2019-02-06T22:55:32.896Z,11.00
2019-02-06T22:57:34.296Z,10.98
2019-02-06T22:59:35.654Z,10.48
2019-02-06T23:01:37.810Z,10.58
2019-02-06T23:03:39.749Z,10.35
2019-02-06T23:05:41.095Z,10.75
2019-02-06T23:07:42.469Z,10.70
2019-02-06T23:09:43.885Z,9.10
2019-02-06T23:11:45.259Z,10.70
2019-02-06T23:13:46.732Z,11.30
2019-02-06T23:15:48.131Z,10.78
2019-02-06T23:17:49.632Z,11.00
2019-02-06T23:19:50.981Z,9.45
2019-02-06T23:21:52.349Z,8.68
2019-02-06T23:23:53.742Z,11.75
2019-02-06T23:25:55.095Z,8.13
2019-02-06T23:27:56.826Z,10.25
2019-02-06T23:29:58.582Z,9.83
2019-02-06T23:31:59.934Z,10.85
2019-02-06T23:34:01.339Z,11.05
2019-02-06T23:36:03.625Z,11.40
2019-02-06T23:38:05.572Z,10.30
2019-02-06T23:40:13.595Z,9.23
2019-02-06T23:42:15.021Z,10.68
2019-02-06T23:44:16.440Z,10.68
2019-02-06T23:46:17.800Z,10.60
2019-02-06T23:48:19.647Z,9.35
2019-02-06T23:50:21.053Z,9.83
2019-02-06T23:52:22.460Z,10.43
2019-02-06T23:54:23.834Z,11.43
2019-02-06T23:56:25.496Z,12.47
2019-02-06T23:58:26.886Z,11.57
